Time;durP1;ratioP1;P1;durP2;ratioP2;P2;SDS_P1;SDS_P2;PMS_P1;PMS_P2;Temp;Humidity;BMP_temperature;BMP_pressure;BME280_temperature;BME280_humidity;BME280_pressure;Samples;Min_cycle;Max_cycle;Signal;HPM_P1;HPM_P2
2022/01/09 00:02:21;;;;;;;16.63;9.67;;;1.50;99.90;0.50;99091;;;;538721;260;24109;-76
2022/01/09 00:04:50;;;;;;;15.17;8.40;;;1.50;99.90;0.50;99085;;;;538760;260;24120;-75
2022/01/09 00:07:17;;;;;;;13.03;7.63;;;1.50;99.90;0.50;99092;;;;538638;260;24174;-75
2022/01/09 00:09:45;;;;;;;10.20;7.03;;;1.60;99.90;0.50;99089;;;;542991;258;24133;-76
2022/01/09 00:12:13;;;;;;;15.60;8.13;;;1.60;99.90;0.50;99083;;;;538439;260;24137;-76
2022/01/09 00:14:41;;;;;;;12.40;8.00;;;1.60;99.90;0.50;99076;;;;544125;258;24203;-75
2022/01/09 00:17:09;;;;;;;16.57;8.97;;;1.60;99.90;0.60;99081;;;;539294;260;24112;-76
2022/01/09 00:19:37;;;;;;;17.43;8.00;;;1.60;99.90;0.60;99087;;;;544135;260;24134;-76
2022/01/09 00:22:05;;;;;;;14.00;7.20;;;1.60;99.90;0.60;99084;;;;539469;260;24161;-76
2022/01/09 00:24:33;;;;;;;13.03;7.40;;;1.60;99.90;0.60;99071;;;;539166;260;24107;-78
2022/01/09 00:27:01;;;;;;;16.80;9.03;;;1.60;99.90;0.60;99072;;;;539207;260;24146;-76
2022/01/09 00:29:29;;;;;;;16.80;8.83;;;1.60;99.90;0.60;99073;;;;539071;260;24255;-75
2022/01/09 00:31:57;;;;;;;16.67;10.47;;;1.60;99.90;0.60;99073;;;;539016;260;25262;-75
2022/01/09 00:34:24;;;;;;;14.70;8.47;;;1.60;99.90;0.60;99076;;;;551500;258;24147;-76
2022/01/09 00:36:53;;;;;;;14.90;8.80;;;1.60;99.90;0.60;99069;;;;538961;260;24121;-76
2022/01/09 00:39:21;;;;;;;16.10;9.43;;;1.60;99.90;0.60;99072;;;;551136;257;24116;-76
2022/01/09 00:41:49;;;;;;;16.53;8.73;;;1.70;99.90;0.60;99069;;;;543427;260;24137;-76
2022/01/09 00:44:18;;;;;;;13.97;8.60;;;1.60;99.90;0.60;99070;;;;538736;260;24125;-76
2022/01/09 00:46:46;;;;;;;14.63;9.40;;;1.60;99.90;0.60;99072;;;;538487;260;24106;-76
2022/01/09 00:49:13;;;;;;;20.33;15.13;;;1.70;99.90;0.60;99065;;;;533869;260;46345;-76
2022/01/09 00:51:41;;;;;;;18.43;10.70;;;1.70;99.90;0.60;99063;;;;538257;260;24135;-73
2022/01/09 00:54:10;;;;;;;15.30;10.10;;;1.70;99.90;0.60;99059;;;;543121;260;24126;-75
2022/01/09 00:56:38;;;;;;;21.23;9.43;;;1.70;99.90;0.60;99060;;;;538383;260;24212;-75
2022/01/09 00:59:06;;;;;;;10.10;7.87;;;1.70;99.90;0.60;99059;;;;538318;260;24121;-76
2022/01/09 01:01:34;;;;;;;15.37;8.43;;;1.70;99.90;0.50;99048;;;;538437;260;24157;-75
2022/01/09 01:04:02;;;;;;;11.13;7.50;;;1.60;99.90;0.50;99049;;;;538349;260;24113;-75
2022/01/09 01:06:30;;;;;;;12.57;8.00;;;1.60;99.90;0.60;99050;;;;538550;260;24113;-75
2022/01/09 01:08:58;;;;;;;17.77;8.30;;;1.60;99.90;0.60;99056;;;;538469;260;24139;-76
2022/01/09 01:11:26;;;;;;;13.90;7.37;;;1.60;99.90;0.50;99057;;;;543202;258;24128;-76
2022/01/09 01:13:54;;;;;;;11.03;7.27;;;1.60;99.90;0.50;99051;;;;538370;260;24134;-75
2022/01/09 01:16:22;;;;;;;13.07;7.23;;;1.50;99.90;0.50;99043;;;;538406;260;24114;-76
2022/01/09 01:18:50;;;;;;;15.07;7.97;;;1.60;99.90;0.50;99041;;;;538488;260;24125;-76
2022/01/09 01:21:18;;;;;;;14.87;7.57;;;1.50;99.90;0.50;99037;;;;538713;260;24128;-76
2022/01/09 01:23:46;;;;;;;12.07;7.07;;;1.50;99.90;0.50;99044;;;;538753;260;24147;-75
2022/01/09 01:26:13;;;;;;;12.57;7.10;;;1.50;99.90;0.50;99036;;;;539697;259;24166;-76
2022/01/09 01:28:41;;;;;;;6.90;5.47;;;1.60;99.90;0.50;99028;;;;544376;260;24114;-76
2022/01/09 01:31:10;;;;;;;12.03;6.33;;;1.50;99.90;0.50;99036;;;;539498;260;24155;-76
2022/01/09 01:33:38;;;;;;;15.73;6.37;;;1.50;99.90;0.50;99027;;;;544002;257;24175;-76
2022/01/09 01:36:10;;;;;;;12.10;7.53;;;1.50;99.90;0.40;99027;;;;528995;263;24180;-75
2022/01/09 01:38:34;;;;;;;9.67;6.30;;;1.50;99.90;0.40;99020;;;;534855;264;24080;-75
2022/01/09 01:41:05;;;;;;;8.30;5.70;;;1.50;99.90;0.40;99026;;;;551925;259;24144;-75
2022/01/09 01:43:30;;;;;;;9.63;4.70;;;1.40;99.90;0.40;99028;;;;551145;253;24118;-75
2022/01/09 01:45:57;;;;;;;9.53;5.13;;;1.40;99.90;0.40;99016;;;;538616;260;24125;-76
2022/01/09 01:48:25;;;;;;;8.93;5.53;;;1.40;99.90;0.40;99020;;;;543209;260;24171;-77
2022/01/09 01:50:56;;;;;;;9.43;6.33;;;1.40;99.90;0.40;99023;;;;538660;260;24115;-75
2022/01/09 01:53:22;;;;;;;9.93;6.37;;;1.40;99.90;0.40;99013;;;;551220;255;24123;-76
2022/01/09 01:55:55;;;;;;;11.67;7.47;;;1.40;99.90;0.40;99022;;;;538666;260;25171;-75
2022/01/09 01:58:18;;;;;;;8.67;6.43;;;1.40;99.90;0.40;99023;;;;550843;254;24057;-76
2022/01/09 02:00:46;;;;;;;10.57;6.53;;;1.40;99.90;0.30;99024;;;;543364;260;24166;-75
2022/01/09 02:03:14;;;;;;;7.57;5.37;;;1.40;99.90;0.30;99013;;;;538323;260;24190;-75
2022/01/09 02:05:42;;;;;;;5.43;4.07;;;1.30;99.90;0.10;99016;;;;534074;264;24081;-75
2022/01/09 02:08:14;;;;;;;9.70;5.57;;;1.20;99.90;0.00;99013;;;;543130;258;24139;-76
2022/01/09 02:10:42;;;;;;;13.97;5.90;;;1.10;99.90;-0.10;99009;;;;543024;260;24167;-75
2022/01/09 02:13:09;;;;;;;9.30;4.63;;;0.90;99.90;-0.30;99007;;;;543039;260;24185;-76
2022/01/09 02:15:37;;;;;;;9.27;6.10;;;0.80;99.90;-0.50;99011;;;;543033;260;24171;-77
2022/01/09 02:18:07;;;;;;;9.83;5.57;;;0.70;99.90;-0.60;99019;;;;542948;260;24109;-74
2022/01/09 02:20:38;;;;;;;8.73;5.77;;;0.50;99.90;-0.80;99022;;;;543043;260;24142;-75
2022/01/09 02:23:03;;;;;;;11.53;5.20;;;0.30;99.90;-0.90;99030;;;;543315;260;24110;-76
2022/01/09 02:25:32;;;;;;;8.13;6.00;;;0.10;99.90;-1.00;99018;;;;551274;260;24208;-75
2022/01/09 02:28:00;;;;;;;10.87;6.73;;;0.10;99.90;-1.10;99018;;;;551342;253;24156;-76
2022/01/09 02:30:29;;;;;;;7.80;5.57;;;0.00;99.90;-1.20;99015;;;;543436;260;24138;-76
2022/01/09 02:32:56;;;;;;;8.17;5.50;;;-0.10;99.90;-1.30;99013;;;;551306;260;24275;-76
2022/01/09 02:35:23;;;;;;;10.07;6.53;;;-0.20;99.90;-1.40;99008;;;;538754;260;24158;-75
2022/01/09 02:37:51;;;;;;;17.03;6.50;;;-0.30;99.90;-1.40;99006;;;;544409;259;24127;-75
2022/01/09 02:40:22;;;;;;;14.93;7.43;;;-0.30;99.90;-1.50;99002;;;;539777;260;24101;-75
2022/01/09 02:42:47;;;;;;;15.27;8.10;;;-0.40;99.90;-1.60;98996;;;;551627;255;24263;-76
2022/01/09 02:45:20;;;;;;;19.63;8.87;;;-0.50;99.90;-1.70;98993;;;;538987;260;24142;-76
2022/01/09 02:47:43;;;;;;;14.43;8.30;;;-0.50;99.90;-1.80;98990;;;;538916;260;24113;-76
2022/01/09 02:50:27;;;;;;;19.67;9.00;;;-0.60;99.90;-1.80;98991;;;;538789;260;24153;-75
2022/01/09 02:52:49;;;;;;;18.17;9.77;;;-0.70;99.90;-1.90;98994;;;;550458;253;25162;-77
2022/01/09 02:55:14;;;;;;;26.93;17.63;;;-0.80;99.90;-2.00;98998;;;;542676;260;24176;-76
2022/01/09 02:57:40;;;;;;;32.40;21.97;;;-0.90;99.90;-2.10;98993;;;;543417;260;24113;-76
2022/01/09 03:00:11;;;;;;;33.47;23.07;;;-1.00;99.90;-2.10;98995;;;;543289;259;24134;-77
2022/01/09 03:02:39;;;;;;;40.70;24.43;;;-1.00;99.90;-2.00;98989;;;;551353;253;24125;-77
2022/01/09 03:05:07;;;;;;;39.27;25.20;;;-1.00;99.90;-2.00;98985;;;;538729;260;24149;-77
2022/01/09 03:07:35;;;;;;;40.77;25.33;;;-0.90;99.90;-2.00;98979;;;;543235;260;24160;-78
2022/01/09 03:10:03;;;;;;;46.53;29.43;;;-0.80;99.90;-2.00;98983;;;;543644;260;24154;-78
2022/01/09 03:12:31;;;;;;;46.77;30.27;;;-0.90;99.90;-2.00;98979;;;;551365;256;24160;-76
2022/01/09 03:14:59;;;;;;;48.17;29.83;;;-0.90;99.90;-2.00;98975;;;;538683;260;24127;-76
2022/01/09 03:17:27;;;;;;;47.70;30.20;;;-0.90;99.90;-2.00;98976;;;;529370;265;24095;-79
2022/01/09 03:19:55;;;;;;;49.10;31.80;;;-0.90;99.90;-2.00;98974;;;;551335;259;24096;-76
2022/01/09 03:22:23;;;;;;;39.17;23.10;;;-0.90;99.90;-2.00;98972;;;;538562;260;24137;-78
2022/01/09 03:24:51;;;;;;;42.83;26.30;;;-0.90;99.90;-1.90;98981;;;;538404;260;24153;-80
2022/01/09 03:27:18;;;;;;;39.17;24.23;;;-0.80;99.90;-1.80;98978;;;;538577;260;24156;-80
2022/01/09 03:29:46;;;;;;;28.80;15.80;;;-0.70;99.90;-1.80;98970;;;;543124;260;24118;-79
2022/01/09 03:32:14;;;;;;;28.60;15.33;;;-0.70;99.90;-1.70;98975;;;;551334;258;24176;-80
2022/01/09 03:34:42;;;;;;;31.50;14.57;;;-0.60;99.90;-1.70;98978;;;;543085;260;24127;-80
2022/01/09 03:37:10;;;;;;;29.30;13.47;;;-0.50;99.90;-1.60;98981;;;;543106;257;24116;-80
2022/01/09 03:39:38;;;;;;;21.63;12.63;;;-0.50;99.90;-1.50;98973;;;;538518;260;24171;-80
2022/01/09 03:42:06;;;;;;;22.30;13.50;;;-0.40;99.90;-1.50;98980;;;;538339;258;24116;-77
2022/01/09 03:44:35;;;;;;;31.73;12.40;;;-0.40;99.90;-1.50;98962;;;;550875;260;24216;-77
2022/01/09 03:47:03;;;;;;;21.33;11.53;;;-0.30;99.90;-1.50;98953;;;;543063;260;25151;-76
2022/01/09 03:49:32;;;;;;;23.67;13.47;;;-0.30;99.90;-1.50;98964;;;;551988;258;24101;-76
2022/01/09 03:52:01;;;;;;;21.87;12.03;;;-0.40;99.90;-1.50;98955;;;;539411;260;24159;-76
2022/01/09 03:54:29;;;;;;;23.33;12.17;;;-0.30;99.90;-1.50;98963;;;;543744;260;24116;-76
2022/01/09 03:57:01;;;;;;;25.53;12.33;;;-0.30;99.90;-1.50;98966;;;;543762;260;24186;-77
2022/01/09 03:59:25;;;;;;;26.37;13.07;;;-0.30;99.90;-1.50;98965;;;;534034;263;24073;-77
2022/01/09 04:01:54;;;;;;;28.63;13.53;;;-0.30;99.90;-1.50;98965;;;;528850;267;24214;-77
2022/01/09 04:04:21;;;;;;;23.00;12.00;;;-0.40;99.90;-1.60;98954;;;;548469;255;24136;-77
2022/01/09 04:06:50;;;;;;;32.40;13.80;;;-0.50;99.90;-1.70;98960;;;;551232;253;24200;-77
2022/01/09 04:09:27;;;;;;;41.10;22.62;;;-0.60;99.90;-1.80;98954;;;;533982;260;35479;-77
2022/01/09 04:11:48;;;;;;;35.50;18.20;;;-0.80;99.90;-1.90;98952;;;;551156;259;24217;-77
2022/01/09 04:14:19;;;;;;;24.70;10.43;;;-0.80;99.90;-1.90;98950;;;;543357;259;24238;-76
2022/01/09 04:16:44;;;;;;;28.73;13.33;;;-0.80;99.90;-1.90;98948;;;;538497;260;24118;-77
2022/01/09 04:19:13;;;;;;;27.67;12.80;;;-0.80;99.90;-1.90;98944;;;;538980;260;24104;-75
2022/01/09 04:21:43;;;;;;;12.77;7.20;;;-0.80;99.90;-1.80;98942;;;;551179;259;24226;-78
2022/01/09 04:24:11;;;;;;;34.00;14.47;;;-0.70;99.90;-1.80;98940;;;;538951;260;24183;-76
2022/01/09 04:26:39;;;;;;;25.80;13.37;;;-0.70;99.90;-1.80;98940;;;;538747;260;24187;-76
2022/01/09 04:29:07;;;;;;;27.30;14.50;;;-0.70;99.90;-1.80;98928;;;;543474;257;24091;-75
2022/01/09 04:31:35;;;;;;;18.00;9.27;;;-0.70;99.90;-1.80;98928;;;;538783;260;24093;-76
2022/01/09 04:34:02;;;;;;;18.37;8.17;;;-0.70;99.90;-1.70;98935;;;;538719;260;24408;-75
2022/01/09 04:36:30;;;;;;;29.67;13.57;;;-0.60;99.90;-1.80;98930;;;;538811;260;24123;-75
2022/01/09 04:38:59;;;;;;;41.00;17.57;;;-0.60;99.90;-1.80;98933;;;;538828;260;24173;-75
2022/01/09 04:41:26;;;;;;;28.00;15.07;;;-0.60;99.90;-1.80;98929;;;;551178;260;24445;-76
2022/01/09 04:43:54;;;;;;;33.33;16.00;;;-0.60;99.90;-1.70;98927;;;;538774;260;24146;-76
2022/01/09 04:46:35;;;;;;;39.73;18.17;;;-0.60;99.90;-1.70;98918;;;;551008;258;24172;-75
2022/01/09 04:48:53;;;;;;;33.87;15.93;;;-0.60;99.90;-1.70;98928;;;;550150;256;24153;-76
2022/01/09 04:51:18;;;;;;;31.97;13.60;;;-0.60;99.90;-1.70;98922;;;;538428;260;24117;-77
2022/01/09 04:53:46;;;;;;;38.20;17.00;;;-0.50;99.90;-1.70;98915;;;;538450;260;24204;-77
2022/01/09 04:56:14;;;;;;;30.73;15.87;;;-0.50;99.90;-1.60;98929;;;;538481;260;24135;-76
2022/01/09 04:58:42;;;;;;;36.97;16.27;;;-0.50;99.90;-1.60;98925;;;;550936;260;24114;-75
2022/01/09 05:01:10;;;;;;;41.57;18.33;;;-0.50;99.90;-1.60;98920;;;;552207;259;24156;-77
2022/01/09 05:03:38;;;;;;;33.30;14.53;;;-0.40;99.90;-1.50;98914;;;;539432;260;24165;-75
2022/01/09 05:06:07;;;;;;;40.77;16.53;;;-0.40;99.90;-1.50;98922;;;;539031;260;24170;-75
2022/01/09 05:08:36;;;;;;;36.37;15.23;;;-0.30;99.90;-1.50;98936;;;;539022;260;24154;-75
2022/01/09 05:11:04;;;;;;;42.80;18.33;;;-0.30;99.90;-1.50;98930;;;;538733;260;24120;-77
2022/01/09 05:13:32;;;;;;;39.13;16.50;;;-0.30;99.90;-1.50;98927;;;;538963;260;24167;-77
2022/01/09 05:16:00;;;;;;;36.03;16.83;;;-0.30;99.90;-1.40;98930;;;;551397;258;24151;-77
2022/01/09 05:18:28;;;;;;;38.67;17.27;;;-0.30;99.90;-1.40;98943;;;;538794;260;24149;-77
2022/01/09 05:20:56;;;;;;;43.67;19.57;;;-0.20;99.90;-1.30;98930;;;;543278;260;24113;-77
2022/01/09 05:23:24;;;;;;;37.37;15.37;;;-0.20;99.90;-1.30;98935;;;;539028;260;24138;-76
2022/01/09 05:25:52;;;;;;;41.27;17.23;;;-0.20;99.90;-1.30;98939;;;;539037;260;24159;-76
2022/01/09 05:28:20;;;;;;;33.80;15.97;;;-0.20;99.90;-1.20;98930;;;;538948;260;25243;-77
2022/01/09 05:30:48;;;;;;;39.07;17.23;;;-0.10;99.90;-1.20;98940;;;;539065;260;25163;-79
2022/01/09 05:33:16;;;;;;;35.63;15.60;;;-0.10;99.90;-1.20;98940;;;;539049;260;24152;-80
2022/01/09 05:35:43;;;;;;;40.13;18.23;;;-0.10;99.90;-1.20;98938;;;;538957;260;24202;-80
2022/01/09 05:38:11;;;;;;;23.80;11.63;;;-0.10;99.90;-1.20;98935;;;;538793;260;24147;-80
2022/01/09 05:40:39;;;;;;;19.87;10.67;;;-0.10;99.90;-1.20;98934;;;;538771;260;24128;-79
2022/01/09 05:43:07;;;;;;;21.10;9.83;;;-0.10;99.90;-1.20;98932;;;;538795;260;24129;-80
2022/01/09 05:45:35;;;;;;;32.57;14.97;;;-0.10;99.90;-1.30;98937;;;;538827;260;24144;-81
2022/01/09 05:48:06;;;;;;;27.83;13.27;;;-0.10;99.90;-1.20;98940;;;;551062;260;24166;-77
2022/01/09 05:50:31;;;;;;;25.20;12.50;;;-0.10;99.90;-1.20;98940;;;;538364;260;24216;-77
2022/01/09 05:52:59;;;;;;;32.13;15.67;;;-0.10;99.90;-1.20;98933;;;;543072;260;24180;-76
2022/01/09 05:55:30;;;;;;;32.67;14.30;;;-0.10;99.90;-1.20;98939;;;;538618;260;24120;-80
2022/01/09 05:57:55;;;;;;;45.08;23.23;;;-0.10;99.90;-1.20;98938;;;;536477;254;34763;-81
2022/01/09 06:00:23;;;;;;;35.57;16.87;;;-0.10;99.90;-1.20;98933;;;;525183;267;24161;-81
2022/01/09 06:02:52;;;;;;;34.27;15.03;;;-0.10;99.90;-1.20;98932;;;;561513;254;24162;-78
2022/01/09 06:05:24;;;;;;;26.20;13.13;;;-0.10;99.90;-1.20;98932;;;;551146;258;24146;-78
2022/01/09 06:07:48;;;;;;;27.97;12.90;;;-0.10;99.90;-1.20;98923;;;;550961;254;24171;-79
2022/01/09 06:10:17;;;;;;;15.10;6.47;;;-0.10;99.90;-1.20;98938;;;;538343;260;24135;-77
2022/01/09 06:12:45;;;;;;;26.87;13.67;;;-0.10;99.90;-1.30;98940;;;;539576;259;24131;-78
2022/01/09 06:15:12;;;;;;;32.67;13.53;;;-0.10;99.90;-1.20;98946;;;;539383;260;24122;-79
2022/01/09 06:17:40;;;;;;;21.73;11.73;;;-0.10;99.90;-1.20;98940;;;;539225;260;24156;-77
2022/01/09 06:20:08;;;;;;;29.40;12.13;;;-0.10;99.90;-1.30;98943;;;;543723;252;24130;-75
2022/01/09 06:22:37;;;;;;;21.47;10.17;;;-0.20;99.90;-1.30;98952;;;;551302;256;24332;-73
2022/01/09 06:25:05;;;;;;;23.80;11.43;;;-0.20;99.90;-1.30;98950;;;;551772;257;24106;-75
2022/01/09 06:27:33;;;;;;;24.60;11.83;;;-0.20;99.90;-1.30;98951;;;;551800;256;24134;-75
2022/01/09 06:30:01;;;;;;;30.40;12.50;;;-0.20;99.90;-1.40;98949;;;;551647;255;24128;-75
2022/01/09 06:32:29;;;;;;;25.57;12.37;;;-0.20;99.90;-1.40;98951;;;;539046;260;24124;-76
2022/01/09 06:34:57;;;;;;;27.10;11.00;;;-0.30;99.90;-1.50;98956;;;;538981;260;25175;-76
2022/01/09 06:37:24;;;;;;;28.73;12.53;;;-0.30;99.90;-1.50;98967;;;;538925;260;24109;-75
2022/01/09 06:39:52;;;;;;;25.00;13.60;;;-0.30;99.90;-1.50;98961;;;;538960;260;24158;-75
2022/01/09 06:42:20;;;;;;;32.27;14.90;;;-0.30;99.90;-1.50;98970;;;;539031;260;24173;-76
2022/01/09 06:44:49;;;;;;;29.63;14.90;;;-0.30;99.90;-1.40;98969;;;;539037;260;24131;-75
2022/01/09 06:47:17;;;;;;;30.00;14.60;;;-0.30;99.90;-1.40;98970;;;;538980;260;25173;-75
2022/01/09 06:49:46;;;;;;;30.40;12.83;;;-0.30;99.90;-1.40;98961;;;;550990;260;24139;-76
2022/01/09 06:52:14;;;;;;;26.40;12.77;;;-0.30;99.90;-1.40;98967;;;;538343;260;24152;-75
2022/01/09 06:54:42;;;;;;;28.47;14.77;;;-0.30;99.90;-1.40;98975;;;;538456;260;24234;-76
2022/01/09 06:57:09;;;;;;;20.37;10.13;;;-0.20;99.90;-1.30;98975;;;;538399;260;24113;-76
2022/01/09 06:59:37;;;;;;;47.03;17.23;;;-0.20;99.90;-1.40;98975;;;;538562;260;24130;-76
2022/01/09 07:02:05;;;;;;;32.60;14.53;;;-0.20;99.90;-1.30;98976;;;;538365;260;24152;-76
2022/01/09 07:04:33;;;;;;;32.70;14.20;;;-0.20;99.90;-1.30;98987;;;;529103;265;24088;-75
2022/01/09 07:07:01;;;;;;;37.53;16.27;;;-0.20;99.90;-1.30;98988;;;;550990;258;24203;-76
2022/01/09 07:09:29;;;;;;;27.80;12.73;;;-0.20;99.90;-1.20;98985;;;;538325;260;24121;-76
2022/01/09 07:11:57;;;;;;;38.70;16.73;;;-0.10;99.90;-1.20;98987;;;;538540;260;24109;-76
2022/01/09 07:14:25;;;;;;;33.03;14.37;;;-0.10;99.90;-1.10;98992;;;;538437;260;24128;-75
2022/01/09 07:16:53;;;;;;;32.13;12.53;;;-0.10;99.90;-1.10;98986;;;;538556;260;24141;-75
2022/01/09 07:19:21;;;;;;;29.50;12.63;;;0.00;99.90;-1.10;98986;;;;538482;260;24137;-77
2022/01/09 07:21:49;;;;;;;37.43;15.47;;;0.00;99.90;-1.10;98997;;;;538292;260;24125;-76
2022/01/09 07:24:17;;;;;;;30.70;12.83;;;0.00;99.90;-1.10;98993;;;;539853;259;24166;-76
2022/01/09 07:26:44;;;;;;;31.57;14.27;;;0.00;99.90;-1.10;99000;;;;539732;260;24175;-77
2022/01/09 07:29:16;;;;;;;27.70;13.50;;;0.00;99.90;-1.10;98994;;;;539382;260;24091;-76
2022/01/09 07:31:45;;;;;;;50.80;25.23;;;0.00;99.90;-1.10;99002;;;;537508;260;41041;-75
2022/01/09 07:34:09;;;;;;;53.40;28.60;;;0.00;99.90;-1.10;99005;;;;538944;260;35460;-76
2022/01/09 07:36:37;;;;;;;55.20;30.25;;;0.10;99.90;-1.00;99006;;;;534485;257;35450;-75
2022/01/09 07:39:05;;;;;;;36.23;19.23;;;0.10;99.90;-1.00;99006;;;;539174;260;24125;-77
2022/01/09 07:41:33;;;;;;;37.57;17.87;;;0.10;99.90;-1.00;99006;;;;551715;259;24204;-76
2022/01/09 07:44:01;;;;;;;37.20;16.53;;;0.10;99.90;-1.00;99008;;;;538971;260;25143;-75
2022/01/09 07:46:30;;;;;;;37.70;16.10;;;0.10;99.90;-1.00;99016;;;;538851;260;25211;-76
2022/01/09 07:49:01;;;;;;;36.00;17.23;;;0.10;99.90;-1.00;99023;;;;538963;260;24141;-75
2022/01/09 07:51:26;;;;;;;32.93;16.17;;;0.10;99.90;-1.00;99024;;;;538590;260;24161;-77
2022/01/09 07:53:54;;;;;;;24.40;12.70;;;0.10;99.90;-1.00;99020;;;;538751;260;24138;-76
2022/01/09 07:56:22;;;;;;;36.87;16.03;;;0.20;99.90;-0.90;99024;;;;538688;260;24135;-77
2022/01/09 07:58:50;;;;;;;29.10;13.37;;;0.20;99.90;-0.90;99025;;;;538716;260;24141;-76
2022/01/09 08:01:18;;;;;;;33.77;16.77;;;0.20;99.90;-0.90;99022;;;;538415;260;24163;-77
2022/01/09 08:03:45;;;;;;;26.03;15.43;;;0.30;99.90;-0.80;99023;;;;538393;260;24089;-76
2022/01/09 08:06:15;;;;;;;19.00;8.17;;;0.30;99.90;-0.80;99016;;;;538523;260;24146;-76
2022/01/09 08:08:42;;;;;;;34.97;15.07;;;0.30;99.90;-0.80;99018;;;;538379;260;25191;-76
2022/01/09 08:11:10;;;;;;;39.60;15.83;;;0.30;99.90;-0.90;99026;;;;538811;260;24121;-76
2022/01/09 08:13:38;;;;;;;35.73;15.03;;;0.30;99.90;-0.80;99033;;;;538783;260;24132;-76
2022/01/09 08:16:06;;;;;;;30.40;14.40;;;0.30;99.90;-0.90;99025;;;;538795;260;24156;-75
2022/01/09 08:18:34;;;;;;;28.40;13.50;;;0.30;99.90;-0.90;99031;;;;538825;260;24128;-76
2022/01/09 08:21:02;;;;;;;10.13;7.10;;;0.20;99.90;-0.90;99027;;;;538780;260;24121;-76
2022/01/09 08:23:29;;;;;;;45.93;19.30;;;0.20;99.90;-0.90;99031;;;;543455;258;24112;-76
2022/01/09 08:25:58;;;;;;;40.33;20.10;;;0.20;99.90;-0.90;99038;;;;550978;259;24277;-75
2022/01/09 08:28:27;;;;;;;18.73;7.23;;;0.30;99.90;-0.80;99039;;;;538580;260;24117;-76
2022/01/09 08:30:55;;;;;;;32.00;14.87;;;0.30;99.90;-0.80;99043;;;;538417;260;24152;-76
2022/01/09 08:33:25;;;;;;;45.37;22.90;;;0.30;99.90;-0.80;99049;;;;543042;260;24165;-76
2022/01/09 08:35:51;;;;;;;58.08;31.73;;;0.30;99.90;-0.80;99047;;;;534856;259;35681;-77
2022/01/09 08:38:22;;;;;;;59.75;36.08;;;0.30;99.90;-0.90;99044;;;;547145;258;35453;-76
2022/01/09 08:40:46;;;;;;;53.67;27.53;;;0.30;99.90;-0.80;99041;;;;543843;260;24107;-77
2022/01/09 08:43:15;;;;;;;45.43;22.83;;;0.40;99.90;-0.80;99033;;;;539207;260;24175;-76
2022/01/09 08:45:43;;;;;;;40.47;19.73;;;0.30;99.90;-0.70;99041;;;;551563;259;24117;-77
2022/01/09 08:48:11;;;;;;;37.77;19.73;;;0.40;99.90;-0.50;99044;;;;538976;260;24174;-76
2022/01/09 08:50:39;;;;;;;43.93;19.47;;;0.60;99.90;-0.50;99042;;;;538820;260;25432;-75
2022/01/09 08:53:07;;;;;;;37.63;19.07;;;0.70;99.90;-0.50;99047;;;;551281;260;24150;-77
2022/01/09 08:55:38;;;;;;;37.30;18.73;;;0.70;99.90;-0.50;99035;;;;538555;260;24179;-76
2022/01/09 08:58:03;;;;;;;42.07;20.97;;;0.60;99.90;-0.50;99038;;;;538744;260;24173;-76
2022/01/09 09:00:31;;;;;;;36.23;17.57;;;0.60;99.90;-0.50;99043;;;;538711;260;24153;-77
2022/01/09 09:02:59;;;;;;;48.63;21.13;;;0.60;99.90;-0.60;99048;;;;539017;260;24164;-76
2022/01/09 09:05:28;;;;;;;46.03;20.67;;;0.60;99.90;-0.50;99042;;;;538767;260;24175;-75
2022/01/09 09:07:55;;;;;;;38.37;20.67;;;0.60;99.90;-0.50;99047;;;;538597;260;24106;-76
2022/01/09 09:10:23;;;;;;;37.63;16.83;;;0.60;99.90;-0.50;99038;;;;538959;260;25191;-76
2022/01/09 09:12:51;;;;;;;34.30;18.17;;;0.60;99.90;-0.50;99031;;;;538775;260;24138;-75
2022/01/09 09:15:20;;;;;;;40.83;17.90;;;0.60;99.90;-0.60;99044;;;;551333;259;24160;-76
2022/01/09 09:17:47;;;;;;;34.20;16.33;;;0.50;99.90;-0.70;99040;;;;538767;260;24166;-77
2022/01/09 09:20:14;;;;;;;33.80;17.50;;;0.40;99.90;-0.80;99037;;;;543513;260;24098;-77
2022/01/09 09:22:42;;;;;;;38.13;17.20;;;0.30;99.90;-0.80;99043;;;;538776;260;24168;-77
2022/01/09 09:25:14;;;;;;;34.87;17.60;;;0.30;99.90;-0.90;99037;;;;538799;260;24153;-76
2022/01/09 09:27:38;;;;;;;25.20;12.50;;;0.20;99.90;-0.90;99039;;;;538366;260;24114;-76
2022/01/09 09:30:10;;;;;;;35.30;17.57;;;0.20;99.90;-1.00;99044;;;;538449;260;24211;-77
2022/01/09 09:32:34;;;;;;;35.67;16.47;;;0.20;99.90;-1.00;99037;;;;542498;260;24121;-76
2022/01/09 09:35:03;;;;;;;52.17;29.63;;;0.10;99.90;-0.90;99037;;;;533774;260;35432;-77
2022/01/09 09:37:30;;;;;;;42.57;18.93;;;0.20;99.90;-1.00;99044;;;;538401;260;24220;-78
2022/01/09 09:39:58;;;;;;;41.57;19.23;;;0.10;99.90;-1.10;99036;;;;543203;260;24096;-77
2022/01/09 09:42:26;;;;;;;37.03;17.10;;;0.00;99.90;-1.10;99041;;;;543074;260;24149;-76
2022/01/09 09:45:00;;;;;;;51.28;29.65;;;0.00;99.90;-1.20;99035;;;;546270;260;35431;-75
2022/01/09 09:47:23;;;;;;;39.17;21.63;;;-0.10;99.90;-1.20;99035;;;;539475;259;24116;-75
2022/01/09 09:49:51;;;;;;;39.57;18.10;;;-0.10;99.90;-1.20;99037;;;;539365;260;24227;-76
2022/01/09 09:52:19;;;;;;;29.07;15.73;;;-0.10;99.90;-1.30;99042;;;;539315;260;24117;-79
2022/01/09 09:54:47;;;;;;;20.43;9.43;;;-0.10;99.90;-1.30;99037;;;;551639;260;24232;-78
2022/01/09 09:57:15;;;;;;;34.80;17.80;;;-0.20;99.90;-1.30;99033;;;;543744;260;24113;-77
2022/01/09 09:59:44;;;;;;;40.30;17.90;;;-0.20;99.90;-1.40;99026;;;;551542;259;24161;-77
2022/01/09 10:02:16;;;;;;;12.73;8.63;;;-0.30;99.90;-1.40;99023;;;;539898;260;24116;-75
2022/01/09 10:05:05;;;;;;;48.27;20.43;;;-0.30;99.90;-1.40;99029;;;;535217;264;24082;-77
2022/01/09 10:07:36;;;;;;;39.53;19.40;;;-0.30;99.90;-1.50;99018;;;;539261;260;24116;-76
2022/01/09 10:10:14;;;;;;;38.03;18.73;;;-0.40;99.90;-1.50;99022;;;;543503;260;24118;-77
2022/01/09 10:12:44;;;;;;;28.30;15.67;;;-0.40;99.90;-1.50;99017;;;;543630;260;24146;-79
2022/01/09 10:15:08;;;;;;;19.87;10.23;;;-0.40;99.90;-1.50;99023;;;;552243;258;24139;-77
2022/01/09 10:17:36;;;;;;;26.97;14.00;;;-0.40;99.90;-1.60;99019;;;;552262;256;24112;-77
2022/01/09 10:20:10;;;;;;;31.40;16.57;;;-0.50;99.90;-1.60;99027;;;;543383;258;24124;-77
2022/01/09 10:22:41;;;;;;;26.67;15.40;;;-0.50;99.90;-1.70;99030;;;;543489;252;24157;-77
2022/01/09 10:25:25;;;;;;;39.97;19.63;;;-0.60;99.90;-1.70;99023;;;;538373;260;24176;-79
2022/01/09 10:27:51;;;;;;;37.00;19.57;;;-0.60;99.90;-1.70;99026;;;;551313;256;24150;-79
2022/01/09 10:30:19;;;;;;;40.87;19.63;;;-0.60;99.90;-1.70;99011;;;;550595;253;24495;-79
2022/01/09 10:32:47;;;;;;;45.37;21.80;;;-0.60;99.90;-1.70;99011;;;;542837;260;25191;-76
2022/01/09 10:35:15;;;;;;;37.47;19.30;;;-0.60;99.90;-1.70;99015;;;;543094;260;24205;-77
2022/01/09 10:37:46;;;;;;;28.70;14.30;;;-0.60;99.90;-1.70;99011;;;;544126;259;24120;-77
2022/01/09 10:40:22;;;;;;;39.73;19.43;;;-0.60;99.90;-1.70;99008;;;;545113;260;24117;-77
2022/01/09 10:43:11;;;;;;;52.22;29.25;;;-0.60;99.90;-1.80;99006;;;;539985;257;35480;-78
2022/01/09 10:45:49;;;;;;;37.30;19.13;;;-0.70;99.90;-1.80;99002;;;;530008;265;24078;-80
2022/01/09 10:48:19;;;;;;;40.73;19.40;;;-0.70;99.90;-1.80;99008;;;;551769;256;24116;-77
2022/01/09 10:50:50;;;;;;;21.43;10.87;;;-0.70;99.90;-1.80;98999;;;;543749;260;24170;-80
2022/01/09 10:53:21;;;;;;;25.67;11.87;;;-0.80;99.90;-1.90;98999;;;;551324;259;24172;-76
2022/01/09 10:56:18;;;;;;;25.93;13.90;;;-0.80;99.90;-1.90;99005;;;;550402;256;24183;-79
2022/01/09 10:58:47;;;;;;;48.27;30.53;;;-0.80;99.90;-2.00;98996;;;;551521;256;24151;-79
2022/01/09 11:01:24;;;;;;;53.30;35.70;;;-0.90;99.90;-2.10;98996;;;;544238;260;24123;-74
2022/01/09 11:03:58;;;;;;;63.27;40.13;;;-0.90;99.90;-2.10;98996;;;;538998;260;24158;-77
2022/01/09 11:06:30;;;;;;;57.60;37.47;;;-1.00;99.90;-2.10;99000;;;;543755;257;24154;-78
2022/01/09 11:08:57;;;;;;;61.67;38.97;;;-1.00;99.90;-2.10;99002;;;;543433;260;24120;-77
2022/01/09 11:11:34;;;;;;;65.67;39.87;;;-1.00;99.90;-2.10;98992;;;;543521;260;24121;-78
2022/01/09 11:13:55;;;;;;;60.50;38.77;;;-1.00;99.90;-2.10;98998;;;;544157;259;24125;-77
2022/01/09 11:16:34;;;;;;;60.60;33.57;;;-1.00;99.90;-2.10;98988;;;;538904;259;38398;-78